createdAt,value
2022-08-03T00:00:35.976Z,20.41
2022-08-03T00:01:35.984Z,20.41
2022-08-03T00:02:35.975Z,20.39
2022-08-03T00:03:35.937Z,20.38
2022-08-03T00:04:35.941Z,20.35
2022-08-03T00:05:35.902Z,20.34
2022-08-03T00:06:37.327Z,20.34
2022-08-03T00:07:35.868Z,20.34
2022-08-03T00:08:37.653Z,20.31
2022-08-03T00:09:36.036Z,20.28
2022-08-03T00:10:35.831Z,20.27
2022-08-03T00:11:35.841Z,20.24
2022-08-03T00:12:35.800Z,20.23
2022-08-03T00:13:35.781Z,20.20
2022-08-03T00:14:35.787Z,20.15
2022-08-03T00:15:35.799Z,20.10
2022-08-03T00:16:35.806Z,20.05
2022-08-03T00:17:52.740Z,20.02
2022-08-03T00:18:36.715Z,19.97
2022-08-03T00:19:35.703Z,19.91
2022-08-03T00:20:35.716Z,19.87
2022-08-03T00:21:35.680Z,19.80
2022-08-03T00:22:35.652Z,19.78
2022-08-03T00:23:51.616Z,19.73
2022-08-03T00:24:36.639Z,19.69
2022-08-03T00:25:35.617Z,19.66
2022-08-03T00:26:35.615Z,19.65
2022-08-03T00:27:35.596Z,19.60
2022-08-03T00:28:35.575Z,19.57
2022-08-03T00:29:59.412Z,19.55
2022-08-03T00:30:36.550Z,19.50
2022-08-03T00:31:52.810Z,19.47
2022-08-03T00:32:36.538Z,19.42
2022-08-03T00:33:59.187Z,19.39
2022-08-03T00:34:57.769Z,19.35
2022-08-03T00:35:50.401Z,19.32
2022-08-03T00:36:36.464Z,19.29
2022-08-03T00:37:41.332Z,19.24
2022-08-03T00:38:36.421Z,19.20
2022-08-03T00:39:35.422Z,19.17
2022-08-03T00:40:35.401Z,19.13
2022-08-03T00:41:35.390Z,19.08
2022-08-03T00:42:56.389Z,19.02
2022-08-03T00:43:35.369Z,18.99
2022-08-03T00:44:35.350Z,18.94
2022-08-03T00:45:35.381Z,18.91
2022-08-03T00:46:35.301Z,18.87
2022-08-03T00:47:35.303Z,18.84
2022-08-03T00:48:35.329Z,18.82
2022-08-03T00:49:35.331Z,18.79
2022-08-03T00:50:35.262Z,18.77
2022-08-03T00:51:35.308Z,18.74
2022-08-03T00:52:35.243Z,18.72
2022-08-03T00:53:35.242Z,18.70
2022-08-03T00:54:35.221Z,18.67
2022-08-03T00:55:35.770Z,18.65
2022-08-03T00:56:35.212Z,18.64
2022-08-03T00:57:35.165Z,18.64
2022-08-03T00:58:35.190Z,18.62
2022-08-03T00:59:35.176Z,18.62
2022-08-03T01:00:35.124Z,18.62
2022-08-03T01:01:35.170Z,18.62
2022-08-03T01:02:35.098Z,18.59
2022-08-03T01:03:35.099Z,18.58
2022-08-03T01:04:35.099Z,18.54
2022-08-03T01:05:35.047Z,18.47
2022-08-03T01:06:35.027Z,18.43
2022-08-03T01:07:35.018Z,18.39
2022-08-03T01:08:35.017Z,18.33
2022-08-03T01:09:34.988Z,18.27
2022-08-03T01:10:34.988Z,18.21
2022-08-03T01:11:35.036Z,18.15
2022-08-03T01:12:34.948Z,18.10
2022-08-03T01:14:01.620Z,18.03
2022-08-03T01:14:35.920Z,17.97
2022-08-03T01:15:34.900Z,17.89
2022-08-03T01:16:35.861Z,17.85
2022-08-03T01:17:34.938Z,17.82
2022-08-03T01:18:34.861Z,17.79
2022-08-03T01:19:34.871Z,17.76
2022-08-03T01:20:34.853Z,17.73
2022-08-03T01:21:34.826Z,17.70
2022-08-03T01:22:34.820Z,17.67
2022-08-03T01:23:34.855Z,17.66
2022-08-03T01:24:34.784Z,17.63
2022-08-03T01:25:34.793Z,17.59
2022-08-03T01:26:34.744Z,17.59
2022-08-03T01:27:34.805Z,17.55
2022-08-03T01:28:34.764Z,17.55
2022-08-03T01:29:34.714Z,17.53
2022-08-03T01:30:34.697Z,17.50
2022-08-03T01:31:35.291Z,17.48
2022-08-03T01:32:58.360Z,17.44
2022-08-03T01:33:35.696Z,17.44
2022-08-03T01:34:34.669Z,17.41
2022-08-03T01:35:38.268Z,17.38
2022-08-03T01:36:34.607Z,17.36
2022-08-03T01:37:34.629Z,17.35
2022-08-03T01:38:34.587Z,17.32
2022-08-03T01:39:34.597Z,17.32
2022-08-03T01:40:34.554Z,17.32
2022-08-03T01:41:34.577Z,17.29
2022-08-03T01:42:34.538Z,17.28
2022-08-03T01:44:28.231Z,17.23
2022-08-03T01:44:35.519Z,17.22
2022-08-03T01:45:34.561Z,17.17
2022-08-03T01:46:34.478Z,17.10
2022-08-03T01:47:34.860Z,17.06
2022-08-03T01:48:34.447Z,17.03
2022-08-03T01:49:34.496Z,16.98
2022-08-03T01:50:34.447Z,16.98
2022-08-03T01:52:02.714Z,16.98
2022-08-03T01:52:35.401Z,16.99
2022-08-03T01:53:34.381Z,17.00
2022-08-03T01:54:34.371Z,17.04
2022-08-03T01:55:34.353Z,17.06
2022-08-03T01:56:34.329Z,17.08
2022-08-03T01:57:34.333Z,17.11
2022-08-03T01:58:35.322Z,17.11
2022-08-03T01:59:34.345Z,17.13
2022-08-03T02:00:34.253Z,17.13
2022-08-03T02:02:29.016Z,17.13
2022-08-03T02:02:35.525Z,17.07
2022-08-03T02:03:34.346Z,17.04
2022-08-03T02:04:34.284Z,17.00
2022-08-03T02:05:34.212Z,16.98
2022-08-03T02:07:01.415Z,16.98
2022-08-03T02:07:35.183Z,16.96
2022-08-03T02:08:34.186Z,16.95
2022-08-03T02:09:34.184Z,16.95
2022-08-03T02:10:35.267Z,16.98
2022-08-03T02:11:34.124Z,16.99
2022-08-03T02:12:34.118Z,16.98
2022-08-03T02:13:34.146Z,16.95
2022-08-03T02:14:34.067Z,16.93
2022-08-03T02:15:34.117Z,16.90
2022-08-03T02:16:34.067Z,16.90
2022-08-03T02:17:39.938Z,16.88
2022-08-03T02:18:35.010Z,16.86
2022-08-03T02:19:35.816Z,16.86
2022-08-03T02:20:33.987Z,16.86
2022-08-03T02:21:56.530Z,16.86
2022-08-03T02:22:34.963Z,16.85
2022-08-03T02:23:33.949Z,16.85
2022-08-03T02:24:33.949Z,16.83
2022-08-03T02:25:33.944Z,16.83
2022-08-03T02:26:33.890Z,16.80
2022-08-03T02:27:33.891Z,16.80
2022-08-03T02:28:33.909Z,16.78
2022-08-03T02:29:39.177Z,16.77
2022-08-03T02:30:34.851Z,16.77
2022-08-03T02:31:33.830Z,16.74
2022-08-03T02:32:33.812Z,16.73
2022-08-03T02:33:33.801Z,16.71
2022-08-03T02:34:33.801Z,16.68
2022-08-03T02:35:33.752Z,16.70
2022-08-03T02:36:33.771Z,16.65
2022-08-03T02:37:33.755Z,16.63
2022-08-03T02:38:33.724Z,16.63
2022-08-03T02:39:33.704Z,16.62
2022-08-03T02:40:33.701Z,16.60
2022-08-03T02:41:33.701Z,16.56
2022-08-03T02:42:33.718Z,16.53
2022-08-03T02:43:57.659Z,16.52
2022-08-03T02:44:34.634Z,16.49
2022-08-03T02:45:33.646Z,16.48
2022-08-03T02:46:33.596Z,16.45
2022-08-03T02:47:53.827Z,16.49
2022-08-03T02:48:34.585Z,16.50
2022-08-03T02:49:40.898Z,16.52
2022-08-03T02:50:34.548Z,16.45
2022-08-03T02:51:33.549Z,16.45
2022-08-03T02:52:33.535Z,16.45
2022-08-03T02:53:33.537Z,16.44
2022-08-03T02:54:33.486Z,16.41
2022-08-03T02:55:33.480Z,16.38
2022-08-03T02:56:33.479Z,16.40
2022-08-03T02:57:33.476Z,16.38
2022-08-03T02:58:33.488Z,16.40
2022-08-03T02:59:33.467Z,16.41
2022-08-03T03:00:33.484Z,16.42
2022-08-03T03:01:33.432Z,16.42
2022-08-03T03:02:33.515Z,16.40
2022-08-03T03:03:40.025Z,16.38
2022-08-03T03:04:34.478Z,16.35
2022-08-03T03:05:54.626Z,16.37
2022-08-03T03:06:34.337Z,16.37
2022-08-03T03:07:33.931Z,16.37
2022-08-03T03:08:34.325Z,16.35
2022-08-03T03:09:40.379Z,16.34
2022-08-03T03:10:34.321Z,16.33
2022-08-03T03:11:33.293Z,16.31
2022-08-03T03:12:33.342Z,16.27
2022-08-03T03:13:33.251Z,16.30
2022-08-03T03:14:34.132Z,16.31
2022-08-03T03:15:33.183Z,16.31
2022-08-03T03:16:33.213Z,16.33
2022-08-03T03:17:33.181Z,16.33
2022-08-03T03:18:33.164Z,16.30
2022-08-03T03:19:33.148Z,16.26
2022-08-03T03:20:33.123Z,16.27
2022-08-03T03:21:33.148Z,16.26
2022-08-03T03:22:33.103Z,16.25
2022-08-03T03:23:33.090Z,16.26
2022-08-03T03:24:33.079Z,16.23
2022-08-03T03:25:33.057Z,16.20
2022-08-03T03:26:33.048Z,16.18
2022-08-03T03:27:33.056Z,16.15
2022-08-03T03:28:33.018Z,16.16
2022-08-03T03:29:39.469Z,16.15
2022-08-03T03:30:34.004Z,16.18
2022-08-03T03:31:32.949Z,16.18
2022-08-03T03:32:32.947Z,16.18
2022-08-03T03:33:32.947Z,16.18
2022-08-03T03:34:32.958Z,16.20
2022-08-03T03:35:37.165Z,16.22
2022-08-03T03:36:33.901Z,16.23
2022-08-03T03:37:32.879Z,16.25
2022-08-03T03:38:32.872Z,16.26
2022-08-03T03:39:32.891Z,16.26
2022-08-03T03:40:32.849Z,16.26
2022-08-03T03:41:33.930Z,16.27
2022-08-03T03:42:32.822Z,16.30
2022-08-03T03:43:32.801Z,16.31
2022-08-03T03:44:32.821Z,16.34
2022-08-03T03:45:32.752Z,16.34
2022-08-03T03:46:32.784Z,16.37
2022-08-03T03:47:33.120Z,16.41
2022-08-03T03:48:32.733Z,16.44
2022-08-03T03:49:32.769Z,16.48
2022-08-03T03:50:32.712Z,16.49
2022-08-03T03:51:32.672Z,16.49
2022-08-03T03:52:32.680Z,16.52
2022-08-03T03:53:32.691Z,16.53
2022-08-03T03:54:32.652Z,16.50
2022-08-03T03:55:32.663Z,16.50
2022-08-03T03:56:32.607Z,16.50
2022-08-03T03:57:32.597Z,16.52
2022-08-03T03:58:32.615Z,16.53
2022-08-03T03:59:32.574Z,16.53
2022-08-03T04:00:32.606Z,16.56
2022-08-03T04:01:32.535Z,16.58
2022-08-03T04:02:32.537Z,16.58
2022-08-03T04:03:32.505Z,16.59
2022-08-03T04:04:32.495Z,16.63
2022-08-03T04:05:32.488Z,16.63
2022-08-03T04:06:32.483Z,16.67
2022-08-03T04:07:32.465Z,16.70
2022-08-03T04:08:32.438Z,16.73
2022-08-03T04:09:32.422Z,16.77
2022-08-03T04:10:32.428Z,16.80
2022-08-03T04:11:32.385Z,16.83
2022-08-03T04:12:32.409Z,16.86
2022-08-03T04:13:32.398Z,16.89
2022-08-03T04:14:32.360Z,16.93
2022-08-03T04:15:32.330Z,16.99
2022-08-03T04:16:32.338Z,17.04
2022-08-03T04:17:32.319Z,17.08
2022-08-03T04:18:32.340Z,17.14
2022-08-03T04:19:32.281Z,17.23
2022-08-03T04:20:32.263Z,17.30
2022-08-03T04:21:32.250Z,17.35
2022-08-03T04:22:32.272Z,17.40
2022-08-03T04:23:32.212Z,17.44
2022-08-03T04:24:32.211Z,17.47
2022-08-03T04:25:32.192Z,17.48
2022-08-03T04:26:32.183Z,17.51
2022-08-03T04:27:32.182Z,17.53
2022-08-03T04:28:32.212Z,17.55
2022-08-03T04:29:32.134Z,17.54
2022-08-03T04:30:32.133Z,17.57
2022-08-03T04:31:32.115Z,17.57
2022-08-03T04:32:32.124Z,17.57
2022-08-03T04:33:32.359Z,17.57
2022-08-03T04:34:32.096Z,17.62
2022-08-03T04:36:02.184Z,17.62
2022-08-03T04:36:33.045Z,17.64
2022-08-03T04:37:32.034Z,17.67
2022-08-03T04:38:32.018Z,17.69
2022-08-03T04:39:31.997Z,17.70
2022-08-03T04:40:31.987Z,17.73
2022-08-03T04:41:31.987Z,17.74
2022-08-03T04:42:31.988Z,17.78
2022-08-03T04:43:31.959Z,17.79
2022-08-03T04:44:31.938Z,17.81
2022-08-03T04:45:31.899Z,17.81
2022-08-03T04:46:31.928Z,17.82
2022-08-03T04:47:31.888Z,17.84
2022-08-03T04:48:31.879Z,17.84
2022-08-03T04:49:31.957Z,17.82
2022-08-03T04:50:31.856Z,17.82
2022-08-03T04:51:31.841Z,17.81
2022-08-03T04:52:31.812Z,17.79
2022-08-03T04:53:31.820Z,17.79
2022-08-03T04:54:31.780Z,17.76
2022-08-03T04:55:31.827Z,17.74
2022-08-03T04:56:31.752Z,17.73
2022-08-03T04:57:31.731Z,17.73
2022-08-03T04:58:31.723Z,17.71
2022-08-03T04:59:31.726Z,17.71
2022-08-03T05:00:31.698Z,17.70
2022-08-03T05:01:31.819Z,17.67
2022-08-03T05:02:31.677Z,17.69
2022-08-03T05:03:31.663Z,17.69
2022-08-03T05:04:31.683Z,17.70
2022-08-03T05:05:50.225Z,17.70
2022-08-03T05:06:32.673Z,17.70
2022-08-03T05:07:36.404Z,17.70
2022-08-03T05:08:32.596Z,17.74
2022-08-03T05:09:49.789Z,17.74
2022-08-03T05:10:32.592Z,17.73
2022-08-03T05:11:31.569Z,17.76
2022-08-03T05:12:33.158Z,17.74
2022-08-03T05:13:31.549Z,17.78
2022-08-03T05:14:31.546Z,17.79
2022-08-03T05:15:31.500Z,17.82
2022-08-03T05:16:31.501Z,17.82
2022-08-03T05:17:31.457Z,17.84
2022-08-03T05:18:31.448Z,17.85
2022-08-03T05:19:31.488Z,17.89
2022-08-03T05:20:31.430Z,17.92
2022-08-03T05:21:52.113Z,17.99
2022-08-03T05:22:32.431Z,18.06
2022-08-03T05:23:31.361Z,18.13
2022-08-03T05:24:31.361Z,18.24
2022-08-03T05:25:31.360Z,18.33
2022-08-03T05:26:31.391Z,18.40
2022-08-03T05:27:31.313Z,18.47
2022-08-03T05:28:31.329Z,18.50
2022-08-03T05:29:31.292Z,18.52
2022-08-03T05:30:34.049Z,18.55
2022-08-03T05:31:31.251Z,18.57
2022-08-03T05:32:31.252Z,18.59
2022-08-03T05:33:31.242Z,18.61
2022-08-03T05:34:31.255Z,18.64
2022-08-03T05:35:57.579Z,18.68
2022-08-03T05:36:32.195Z,18.74
2022-08-03T05:37:31.198Z,18.76
2022-08-03T05:38:34.000Z,18.79
2022-08-03T05:39:31.161Z,18.80
2022-08-03T05:40:31.156Z,18.86
2022-08-03T05:41:36.866Z,18.92
2022-08-03T05:42:32.107Z,18.95
2022-08-03T05:43:31.100Z,19.01
2022-08-03T05:44:31.071Z,19.08
2022-08-03T05:45:31.073Z,19.18
2022-08-03T05:46:31.062Z,19.25
2022-08-03T05:47:31.029Z,19.32
2022-08-03T05:48:31.020Z,19.35
2022-08-03T05:49:31.034Z,19.42
2022-08-03T05:50:31.000Z,19.51
2022-08-03T05:51:30.998Z,19.69
2022-08-03T05:52:30.975Z,19.91
2022-08-03T05:53:30.954Z,20.18
2022-08-03T05:54:56.077Z,20.47
2022-08-03T05:55:31.940Z,20.76
2022-08-03T05:56:30.932Z,21.04
2022-08-03T05:57:30.886Z,21.29
2022-08-03T05:58:30.890Z,21.51
2022-08-03T05:59:38.773Z,21.75
2022-08-03T06:00:31.876Z,22.01
2022-08-03T06:01:30.917Z,22.23
2022-08-03T06:02:30.832Z,22.49
2022-08-03T06:03:30.805Z,22.74
2022-08-03T06:04:30.803Z,22.83
2022-08-03T06:05:30.833Z,22.97
2022-08-03T06:06:32.379Z,23.14
2022-08-03T06:07:30.776Z,23.31
2022-08-03T06:08:30.739Z,23.46
2022-08-03T06:09:56.592Z,23.68
2022-08-03T06:10:37.133Z,23.90
2022-08-03T06:11:31.713Z,24.05
2022-08-03T06:12:30.711Z,24.19
2022-08-03T06:13:30.677Z,24.35
2022-08-03T06:14:30.659Z,24.49
2022-08-03T06:15:30.666Z,24.67
2022-08-03T06:16:30.667Z,24.76
2022-08-03T06:17:37.661Z,24.85
2022-08-03T06:18:31.596Z,24.95
2022-08-03T06:19:30.579Z,25.17
2022-08-03T06:20:30.631Z,25.34
2022-08-03T06:21:30.567Z,25.43
2022-08-03T06:22:30.551Z,25.43
2022-08-03T06:23:54.368Z,25.67
2022-08-03T06:24:31.534Z,25.87
2022-08-03T06:25:30.567Z,26.04
2022-08-03T06:26:30.492Z,26.18
2022-08-03T06:27:37.144Z,26.31
2022-08-03T06:28:52.441Z,26.40
2022-08-03T06:29:31.461Z,26.44
2022-08-03T06:30:30.424Z,26.47
2022-08-03T06:31:33.359Z,26.69
2022-08-03T06:32:30.432Z,26.87
2022-08-03T06:33:48.221Z,27.02
2022-08-03T06:34:35.667Z,27.21
2022-08-03T06:35:30.366Z,27.32
2022-08-03T06:36:30.345Z,27.41
2022-08-03T06:37:30.336Z,27.47
2022-08-03T06:38:30.357Z,27.50
2022-08-03T06:39:30.351Z,27.64
2022-08-03T06:40:30.289Z,27.77
2022-08-03T06:41:30.296Z,27.84
2022-08-03T06:42:31.319Z,27.95
2022-08-03T06:43:30.247Z,28.16
2022-08-03T06:44:31.250Z,28.32
2022-08-03T06:45:31.815Z,28.35
2022-08-03T06:46:30.212Z,28.50
2022-08-03T06:47:30.218Z,28.65
2022-08-03T06:48:30.222Z,28.77
2022-08-03T06:49:30.204Z,28.82
2022-08-03T06:50:30.162Z,28.95
2022-08-03T06:52:04.187Z,29.13
2022-08-03T06:52:37.611Z,29.18
2022-08-03T06:53:31.133Z,29.23
2022-08-03T06:54:32.917Z,29.28
2022-08-03T06:55:30.244Z,29.29
2022-08-03T06:56:30.074Z,29.31
2022-08-03T06:57:30.061Z,29.26
2022-08-03T06:58:30.056Z,29.37
2022-08-03T07:00:07.446Z,29.47
2022-08-03T07:00:31.073Z,29.57
2022-08-03T07:01:30.081Z,29.63
2022-08-03T07:02:29.991Z,29.77
2022-08-03T07:03:29.998Z,29.96
2022-08-03T07:04:30.039Z,29.87
2022-08-03T07:05:29.999Z,29.97
2022-08-03T07:06:29.940Z,30.14
2022-08-03T07:07:29.934Z,30.23
2022-08-03T07:08:33.853Z,30.33
2022-08-03T07:09:29.908Z,30.52
2022-08-03T07:10:29.894Z,30.50
2022-08-03T07:11:29.895Z,30.61
2022-08-03T07:12:29.868Z,30.57
2022-08-03T07:13:29.823Z,30.74
2022-08-03T07:14:29.934Z,30.74
2022-08-03T07:15:53.847Z,30.62
2022-08-03T07:16:30.845Z,30.57
2022-08-03T07:17:29.815Z,30.57
2022-08-03T07:18:30.226Z,30.53
2022-08-03T07:19:29.764Z,30.46
2022-08-03T07:20:32.525Z,30.52
2022-08-03T07:21:29.736Z,30.64
2022-08-03T07:22:29.753Z,30.76
2022-08-03T07:23:29.719Z,30.90
2022-08-03T07:24:29.756Z,30.98
2022-08-03T07:25:29.690Z,31.09
2022-08-03T07:26:29.665Z,31.21
2022-08-03T07:27:29.682Z,31.39
2022-08-03T07:28:29.701Z,31.54
2022-08-03T07:29:29.656Z,31.67
2022-08-03T07:30:30.636Z,31.75
2022-08-03T07:31:34.447Z,31.96
2022-08-03T07:32:30.593Z,32.10
2022-08-03T07:33:29.580Z,32.25
2022-08-03T07:34:29.653Z,32.35
2022-08-03T07:35:29.600Z,32.51
2022-08-03T07:36:29.538Z,32.66
2022-08-03T07:37:29.534Z,32.69
2022-08-03T07:38:29.522Z,32.86
2022-08-03T07:39:29.495Z,32.70
2022-08-03T07:40:31.768Z,32.58
2022-08-03T07:41:29.474Z,32.24
2022-08-03T07:42:29.529Z,32.33
2022-08-03T07:43:29.454Z,32.36
2022-08-03T07:44:29.436Z,32.13
2022-08-03T07:45:29.468Z,31.95
2022-08-03T07:46:29.427Z,32.00
2022-08-03T07:47:35.379Z,32.13
2022-08-03T07:48:30.625Z,32.18
2022-08-03T07:49:29.415Z,32.21
2022-08-03T07:50:29.380Z,32.11
2022-08-03T07:51:29.367Z,31.79
2022-08-03T07:52:29.342Z,31.54
2022-08-03T07:53:29.391Z,31.55
2022-08-03T07:54:29.392Z,31.50
2022-08-03T07:55:29.297Z,31.62
2022-08-03T07:56:29.325Z,31.57
2022-08-03T07:57:29.282Z,31.62
2022-08-03T07:58:29.275Z,31.75
2022-08-03T07:59:29.278Z,32.25
2022-08-03T08:00:30.331Z,32.57
2022-08-03T08:01:29.396Z,32.93
2022-08-03T08:02:29.195Z,33.23
2022-08-03T08:03:29.257Z,33.41
2022-08-03T08:04:30.185Z,33.51
2022-08-03T08:05:29.215Z,33.49
2022-08-03T08:06:29.153Z,33.53
2022-08-03T08:07:29.171Z,33.64
2022-08-03T08:08:29.116Z,33.71
2022-08-03T08:09:29.157Z,33.98
2022-08-03T08:10:29.106Z,34.14
2022-08-03T08:11:29.100Z,34.05
2022-08-03T08:12:29.068Z,33.71
2022-08-03T08:13:29.049Z,33.49
2022-08-03T08:14:29.040Z,33.33
2022-08-03T08:15:29.197Z,33.10
2022-08-03T08:16:29.022Z,32.76
2022-08-03T08:17:29.129Z,32.57
2022-08-03T08:18:29.053Z,32.36
2022-08-03T08:19:29.174Z,32.21
2022-08-03T08:20:31.364Z,32.15
2022-08-03T08:21:53.883Z,32.10
2022-08-03T08:22:31.387Z,32.18
2022-08-03T08:23:42.363Z,31.98
2022-08-03T08:24:29.924Z,31.87
2022-08-03T08:25:28.886Z,31.88
2022-08-03T08:26:28.963Z,31.93
2022-08-03T08:27:28.875Z,31.93
2022-08-03T08:28:33.559Z,32.07
2022-08-03T08:29:28.856Z,31.99
2022-08-03T08:30:28.852Z,31.82
2022-08-03T08:31:28.818Z,31.93
2022-08-03T08:32:28.849Z,32.21
2022-08-03T08:33:42.181Z,32.42
2022-08-03T08:34:29.798Z,32.64
2022-08-03T08:35:39.569Z,32.89
2022-08-03T08:36:28.773Z,33.17
2022-08-03T08:37:28.809Z,33.22
2022-08-03T08:38:28.780Z,33.23
2022-08-03T08:39:28.747Z,33.20
2022-08-03T08:40:28.700Z,33.01
2022-08-03T08:41:32.081Z,32.88
2022-08-03T08:42:28.722Z,32.93
2022-08-03T08:43:40.730Z,33.06
2022-08-03T08:44:28.673Z,32.95
2022-08-03T08:45:28.633Z,32.70
2022-08-03T08:46:28.636Z,32.66
2022-08-03T08:47:28.617Z,32.81
2022-08-03T08:48:28.604Z,32.99
2022-08-03T08:49:28.698Z,33.11
2022-08-03T08:50:28.750Z,33.15
2022-08-03T08:51:43.821Z,33.17
2022-08-03T08:52:32.173Z,33.33
2022-08-03T08:53:28.557Z,33.49
2022-08-03T08:54:28.527Z,33.64
2022-08-03T08:55:28.531Z,33.89
2022-08-03T08:56:28.508Z,34.26
2022-08-03T08:57:42.222Z,34.53
2022-08-03T08:58:29.487Z,34.39
2022-08-03T08:59:47.653Z,34.51
2022-08-03T09:00:29.451Z,34.77
2022-08-03T09:01:28.589Z,34.80
2022-08-03T09:02:28.462Z,34.92
2022-08-03T09:03:30.376Z,35.30
2022-08-03T09:04:28.395Z,35.26
2022-08-03T09:05:54.986Z,35.03
2022-08-03T09:06:29.411Z,35.03
2022-08-03T09:07:28.354Z,35.07
2022-08-03T09:08:28.382Z,34.79
2022-08-03T09:10:08.280Z,34.63
2022-08-03T09:10:29.333Z,34.74
2022-08-03T09:11:54.328Z,34.81
2022-08-03T09:12:41.397Z,34.84
2022-08-03T09:13:29.416Z,34.74
2022-08-03T09:14:37.246Z,34.66
2022-08-03T09:15:29.332Z,34.61
2022-08-03T09:16:28.226Z,34.54
2022-08-03T09:17:28.240Z,34.69
2022-08-03T09:18:29.005Z,34.95
2022-08-03T09:19:28.215Z,35.13
2022-08-03T09:20:28.196Z,35.40
2022-08-03T09:21:32.962Z,35.60
2022-08-03T09:22:29.168Z,35.67
2022-08-03T09:23:59.187Z,35.47
2022-08-03T09:24:41.290Z,35.07
2022-08-03T09:25:29.157Z,34.79
2022-08-03T09:26:28.120Z,34.50
2022-08-03T09:27:28.121Z,34.79
2022-08-03T09:29:00.060Z,34.96
2022-08-03T09:29:29.110Z,35.03
2022-08-03T09:30:33.300Z,34.81
2022-08-03T09:31:29.093Z,34.88
2022-08-03T09:32:28.085Z,35.10
2022-08-03T09:33:36.145Z,35.35
2022-08-03T09:34:29.049Z,35.32
2022-08-03T09:35:51.541Z,35.32
2022-08-03T09:36:29.056Z,35.23
2022-08-03T09:38:12.306Z,34.94
2022-08-03T09:38:28.996Z,34.84
2022-08-03T09:39:40.991Z,34.77
2022-08-03T09:40:28.957Z,34.77
2022-08-03T09:41:27.971Z,34.81
2022-08-03T09:42:28.015Z,34.69
2022-08-03T09:43:28.060Z,34.64
2022-08-03T09:44:27.937Z,34.72
2022-08-03T09:45:27.929Z,34.69
2022-08-03T09:46:27.888Z,34.53
2022-08-03T09:47:28.405Z,34.42
2022-08-03T09:48:27.880Z,34.34
2022-08-03T09:49:27.883Z,34.14
2022-08-03T09:50:27.830Z,34.29
2022-08-03T09:52:24.730Z,34.08
2022-08-03T09:52:39.295Z,34.13
2022-08-03T09:53:28.803Z,34.34
2022-08-03T09:54:27.810Z,34.61
2022-08-03T09:56:33.433Z,34.80
2022-08-03T09:56:34.812Z,34.80
2022-08-03T09:57:28.783Z,34.66
2022-08-03T09:58:27.765Z,34.77
2022-08-03T09:59:27.733Z,34.70
2022-08-03T10:00:27.733Z,34.60
2022-08-03T10:01:27.796Z,34.41
2022-08-03T10:02:27.702Z,34.46
2022-08-03T10:03:27.756Z,34.54
2022-08-03T10:04:27.684Z,34.61
2022-08-03T10:05:27.675Z,34.54
2022-08-03T10:06:28.876Z,34.80
2022-08-03T10:09:15.390Z,35.11
2022-08-03T10:10:30.013Z,35.18
2022-08-03T10:11:16.129Z,35.15
2022-08-03T10:12:14.068Z,35.07
2022-08-03T10:13:13.969Z,35.10
2022-08-03T10:14:13.944Z,34.98
2022-08-03T10:16:21.197Z,35.25
2022-08-03T10:16:22.020Z,35.03
2022-08-03T10:17:14.994Z,35.01
2022-08-03T10:18:13.878Z,35.11
2022-08-03T10:19:13.879Z,35.21
2022-08-03T10:20:13.948Z,35.45
2022-08-03T10:21:13.838Z,35.64
2022-08-03T10:22:13.826Z,35.81
2022-08-03T10:23:13.854Z,35.99
2022-08-03T10:24:13.871Z,36.07
2022-08-03T10:25:13.819Z,36.26
2022-08-03T10:26:13.853Z,36.33
2022-08-03T10:27:13.804Z,36.43
2022-08-03T10:28:13.783Z,36.42
2022-08-03T10:29:13.730Z,36.17
2022-08-03T10:30:13.730Z,35.66
2022-08-03T10:31:13.716Z,35.32
2022-08-03T10:32:13.711Z,35.13
2022-08-03T10:33:51.532Z,35.11
2022-08-03T10:34:14.693Z,34.86
2022-08-03T10:35:20.044Z,34.94
2022-08-03T10:36:14.652Z,34.91
2022-08-03T10:37:13.679Z,34.84
2022-08-03T10:38:13.653Z,34.83
2022-08-03T10:39:16.251Z,34.66
2022-08-03T10:40:16.171Z,34.89
2022-08-03T10:41:14.609Z,35.20
2022-08-03T10:42:14.791Z,35.21
2022-08-03T10:43:13.627Z,35.37
2022-08-03T10:44:13.893Z,35.44
2022-08-03T10:45:13.537Z,35.35
2022-08-03T10:46:13.527Z,35.39
2022-08-03T10:47:13.603Z,35.45
2022-08-03T10:48:13.519Z,35.69
2022-08-03T10:49:13.577Z,35.97
2022-08-03T10:50:13.509Z,36.24
2022-08-03T10:51:13.496Z,36.41
2022-08-03T10:52:31.899Z,36.64
2022-08-03T10:53:14.711Z,36.60
2022-08-03T10:54:13.441Z,36.83
2022-08-03T10:55:13.430Z,36.64
2022-08-03T10:56:13.422Z,36.51
2022-08-03T10:57:14.453Z,36.56
2022-08-03T10:58:13.391Z,36.70
2022-08-03T10:59:14.734Z,36.85
2022-08-03T11:00:14.486Z,36.79
2022-08-03T11:01:13.416Z,36.77
2022-08-03T11:02:13.352Z,36.80
2022-08-03T11:03:13.363Z,36.87
2022-08-03T11:04:16.874Z,36.67
2022-08-03T11:05:13.324Z,36.46
2022-08-03T11:06:13.306Z,36.49
2022-08-03T11:07:13.297Z,36.73
2022-08-03T11:08:13.286Z,36.76
2022-08-03T11:09:13.279Z,36.85
2022-08-03T11:10:13.257Z,37.20
2022-08-03T11:11:13.246Z,37.59
2022-08-03T11:12:13.320Z,37.70
2022-08-03T11:13:13.218Z,37.64
2022-08-03T11:14:13.208Z,37.41
2022-08-03T11:15:13.227Z,37.29
2022-08-03T11:16:18.335Z,37.09
2022-08-03T11:17:14.707Z,36.82
2022-08-03T11:18:13.216Z,36.58
2022-08-03T11:19:13.190Z,36.57
2022-08-03T11:20:13.179Z,36.45
2022-08-03T11:21:13.171Z,36.15
2022-08-03T11:22:13.188Z,36.29
2022-08-03T11:23:13.092Z,36.39
2022-08-03T11:24:13.100Z,36.64
2022-08-03T11:25:53.685Z,36.77
2022-08-03T11:26:14.073Z,36.92
2022-08-03T11:27:13.040Z,36.97
2022-08-03T11:28:13.050Z,36.99
2022-08-03T11:29:13.033Z,37.09
2022-08-03T11:30:13.053Z,37.17
2022-08-03T11:31:32.725Z,37.42
2022-08-03T11:32:19.216Z,37.56
2022-08-03T11:33:13.973Z,37.33
2022-08-03T11:34:12.984Z,37.42
2022-08-03T11:35:12.977Z,37.51
2022-08-03T11:36:12.935Z,37.61
2022-08-03T11:37:13.945Z,37.47
2022-08-03T11:38:12.936Z,37.35
2022-08-03T11:39:12.913Z,37.38
2022-08-03T11:40:12.919Z,37.50
2022-08-03T11:41:12.891Z,37.38
2022-08-03T11:42:12.889Z,37.35
2022-08-03T11:43:12.866Z,37.70
2022-08-03T11:44:12.899Z,38.08
2022-08-03T11:45:12.847Z,38.32
2022-08-03T11:46:12.818Z,38.33
2022-08-03T11:47:12.890Z,38.29
2022-08-03T11:48:12.808Z,38.26
2022-08-03T11:49:12.810Z,38.44
2022-08-03T11:50:12.830Z,38.33
2022-08-03T11:51:12.784Z,38.20
2022-08-03T11:52:12.761Z,37.96
2022-08-03T11:53:12.760Z,38.10
2022-08-03T11:54:12.732Z,38.26
2022-08-03T11:55:12.742Z,38.29
2022-08-03T11:56:13.250Z,38.08
2022-08-03T11:57:12.816Z,38.32
2022-08-03T11:59:10.904Z,38.55
2022-08-03T11:59:20.182Z,38.52
2022-08-03T12:00:13.682Z,38.52
2022-08-03T12:01:12.649Z,38.70
2022-08-03T12:02:12.653Z,38.75
2022-08-03T12:03:12.773Z,38.48
2022-08-03T12:04:12.621Z,38.41
2022-08-03T12:05:12.612Z,38.46
2022-08-03T12:06:12.645Z,38.51
2022-08-03T12:07:12.592Z,38.52
2022-08-03T12:08:13.676Z,38.89
2022-08-03T12:09:12.615Z,38.96
2022-08-03T12:10:12.604Z,39.03
2022-08-03T12:11:12.555Z,38.86
2022-08-03T12:12:12.546Z,38.68
2022-08-03T12:14:10.734Z,38.87
2022-08-03T12:14:49.235Z,38.86
2022-08-03T12:15:13.546Z,38.99
2022-08-03T12:16:12.532Z,39.17
2022-08-03T12:17:12.503Z,39.32
2022-08-03T12:18:12.501Z,39.08
2022-08-03T12:19:12.484Z,39.06
2022-08-03T12:20:12.460Z,39.02
2022-08-03T12:21:12.448Z,39.03
2022-08-03T12:22:12.452Z,38.83
2022-08-03T12:23:12.431Z,38.61
2022-08-03T12:24:12.418Z,38.66
2022-08-03T12:25:12.371Z,38.44
2022-08-03T12:26:12.421Z,38.29
2022-08-03T12:27:12.487Z,38.53
2022-08-03T12:28:36.432Z,38.78
2022-08-03T12:29:13.363Z,38.76
2022-08-03T12:30:12.413Z,38.44
2022-08-03T12:31:12.342Z,38.32
2022-08-03T12:32:12.342Z,38.18
2022-08-03T12:33:12.350Z,38.20
2022-08-03T12:34:12.284Z,38.42
2022-08-03T12:35:12.318Z,38.66
2022-08-03T12:36:12.283Z,38.71
2022-08-03T12:37:28.963Z,38.70
2022-08-03T12:38:13.296Z,38.80
2022-08-03T12:39:12.249Z,39.20
2022-08-03T12:40:15.182Z,39.42
2022-08-03T12:41:13.206Z,39.71
2022-08-03T12:42:12.208Z,39.78
2022-08-03T12:43:12.209Z,39.84
2022-08-03T12:44:12.285Z,39.92
2022-08-03T12:45:12.180Z,39.59
2022-08-03T12:46:12.153Z,39.51
2022-08-03T12:47:12.258Z,39.61
2022-08-03T12:48:12.138Z,39.59
2022-08-03T12:49:12.176Z,39.22
2022-08-03T12:50:12.158Z,39.03
2022-08-03T12:51:12.127Z,39.24
2022-08-03T12:52:12.149Z,39.54
2022-08-03T12:53:12.107Z,39.70
2022-08-03T12:54:12.154Z,39.77